Time,TemperatureF,DewpointF,PressureIn,WindDirection,WindDirectionDegrees,WindSpeedMPH,WindSpeedGustMPH,Humidity,HourlyPrecipIn,Conditions,Clouds,dailyrainin,SoftwareType,DateUTC
2013-05-30 00:23:00,60.0,57.0,30.09,North,0,0.0,0.0,90,0.00,,,0.00,,2013-05-30 04:23:00,
2013-05-30 00:33:00,60.0,57.0,30.09,North,0,0.0,0.0,90,0.00,,,0.00,,2013-05-30 04:33:00,
2013-05-30 00:42:00,60.0,57.0,30.09,North,0,0.0,0.0,90,0.00,,,0.00,,2013-05-30 04:42:00,
2013-05-30 00:53:00,60.0,57.0,30.09,North,0,0.0,0.0,90,0.00,,,0.00,,2013-05-30 04:53:00,
2013-05-30 01:02:00,60.0,57.0,30.09,North,0,0.0,0.0,90,0.00,,,0.00,,2013-05-30 05:02:00,
2013-05-30 01:12:00,60.0,57.0,30.09,North,0,0.0,0.0,90,0.00,,,0.00,,2013-05-30 05:12:00,
2013-05-30 04:02:00,62.0,60.0,30.06,North,0,0.0,0.0,93,0.00,,,0.00,,2013-05-30 08:02:00,
2013-05-30 04:11:00,62.0,60.0,30.06,North,0,0.0,0.0,93,0.00,,,0.00,,2013-05-30 08:11:00,
2013-05-30 04:22:00,62.0,60.0,30.06,North,0,0.0,0.0,93,0.00,,,0.00,,2013-05-30 08:22:00,
2013-05-30 04:32:00,62.0,60.0,30.06,North,0,0.0,0.0,93,0.00,,,0.00,,2013-05-30 08:32:00,
2013-05-30 04:42:00,62.0,60.0,30.06,North,0,0.0,0.0,93,0.00,,,0.00,,2013-05-30 08:42:00,
2013-05-30 04:52:00,62.0,60.0,30.06,North,0,0.0,0.0,93,0.00,,,0.00,,2013-05-30 08:52:00,
2013-05-30 05:01:00,62.0,60.0,30.06,North,0,0.0,0.0,93,0.00,,,0.00,,2013-05-30 09:01:00,
2013-05-30 05:11:00,62.0,60.0,30.06,North,0,0.0,0.0,93,0.00,,,0.00,,2013-05-30 09:11:00,
2013-05-30 06:03:00,60.0,58.0,30.06,North,0,0.0,0.0,93,0.00,,,0.00,,2013-05-30 10:03:00,
2013-05-30 06:13:00,60.0,58.0,30.06,North,0,0.0,0.0,93,0.00,,,0.00,,2013-05-30 10:13:00,
2013-05-30 06:23:00,60.0,58.0,30.06,North,0,0.0,0.0,93,0.00,,,0.00,,2013-05-30 10:23:00,
2013-05-30 06:33:00,60.0,58.0,30.06,North,0,0.0,0.0,93,0.00,,,0.00,,2013-05-30 10:33:00,
2013-05-30 06:42:00,60.0,58.0,30.06,North,0,0.0,0.0,93,0.00,,,0.00,,2013-05-30 10:42:00,
2013-05-30 06:52:00,60.0,58.0,30.06,North,0,0.0,0.0,93,0.00,,,0.00,,2013-05-30 10:52:00,
2013-05-30 07:03:00,60.0,58.0,30.06,North,0,0.0,0.0,93,0.00,,,0.00,,2013-05-30 11:03:00,
2013-05-30 07:52:00,61.0,59.0,30.06,North,0,0.0,0.0,93,0.00,,,0.00,,2013-05-30 11:52:00,
2013-05-30 08:02:00,61.0,59.0,30.06,North,0,0.0,0.0,93,0.00,,,0.00,,2013-05-30 12:02:00,
2013-05-30 08:11:00,61.0,59.0,30.06,North,0,0.0,0.0,93,0.00,,,0.00,,2013-05-30 12:11:00,
2013-05-30 08:22:00,61.0,59.0,30.06,North,0,0.0,0.0,93,0.00,,,0.00,,2013-05-30 12:22:00,
2013-05-30 08:32:00,63.0,61.0,30.06,WSW,248,0.0,0.0,92,0.00,,,0.00,,2013-05-30 12:32:00,
2013-05-30 08:42:00,63.0,61.0,30.06,WSW,248,0.0,0.0,92,0.00,,,0.00,,2013-05-30 12:42:00,
2013-05-30 08:52:00,64.0,62.0,30.09,West,270,0.0,0.0,92,0.00,,,0.00,,2013-05-30 12:52:00,
2013-05-30 09:01:00,64.0,62.0,30.09,West,270,0.0,0.0,92,0.00,,,0.00,,2013-05-30 13:01:00,
2013-05-30 09:11:00,64.0,62.0,30.09,West,270,0.0,0.0,92,0.00,,,0.00,,2013-05-30 13:11:00,
2013-05-30 09:22:00,65.0,62.0,30.09,West,270,0.0,0.0,91,0.00,,,0.00,,2013-05-30 13:22:00,
2013-05-30 09:32:00,65.0,62.0,30.09,West,270,0.0,0.0,91,0.00,,,0.00,,2013-05-30 13:32:00,
2013-05-30 09:42:00,65.0,62.0,30.09,West,270,0.0,0.0,91,0.00,,,0.00,,2013-05-30 13:42:00,
2013-05-30 09:52:00,65.0,62.0,30.09,West,270,0.0,0.0,90,0.00,,,0.00,,2013-05-30 13:52:00,
2013-05-30 10:02:00,66.0,63.0,30.09,West,270,0.0,0.0,89,0.00,,,0.00,,2013-05-30 14:02:00,
2013-05-30 10:11:00,66.0,63.0,30.09,West,270,0.0,0.0,89,0.00,,,0.00,,2013-05-30 14:11:00,
2013-05-30 10:22:00,67.0,63.0,30.09,West,270,0.0,0.0,88,0.00,,,0.00,,2013-05-30 14:22:00,
2013-05-30 10:32:00,69.0,65.0,30.09,West,270,0.0,0.0,87,0.00,,,0.00,,2013-05-30 14:32:00,
2013-05-30 10:42:00,69.0,65.0,30.09,West,270,0.0,0.0,87,0.00,,,0.00,,2013-05-30 14:42:00,
2013-05-30 10:52:00,69.0,65.0,30.09,West,270,0.0,0.0,87,0.00,,,0.00,,2013-05-30 14:52:00,
2013-05-30 11:01:00,72.0,67.0,30.09,WSW,248,0.0,0.0,85,0.00,,,0.00,,2013-05-30 15:01:00,
2013-05-30 11:11:00,72.0,67.0,30.09,WSW,248,0.0,0.0,85,0.00,,,0.00,,2013-05-30 15:11:00,
2013-05-30 11:22:00,72.0,67.0,30.06,WSW,248,0.0,0.0,84,0.00,,,0.00,,2013-05-30 15:22:00,
2013-05-30 11:33:00,73.0,68.0,30.06,WSW,248,0.0,0.0,84,0.00,,,0.00,,2013-05-30 15:33:00,
2013-05-30 11:42:00,73.0,68.0,30.06,WSW,248,0.0,0.0,84,0.00,,,0.00,,2013-05-30 15:42:00,
2013-05-30 11:52:00,73.0,68.0,30.06,WSW,248,0.0,0.0,84,0.00,,,0.00,,2013-05-30 15:52:00,
2013-05-30 12:03:00,73.0,68.0,30.06,WSW,248,0.0,0.0,84,0.00,,,0.00,,2013-05-30 16:03:00,
2013-05-30 12:13:00,73.0,68.0,30.06,WSW,248,0.0,0.0,84,0.00,,,0.00,,2013-05-30 16:13:00,
2013-05-30 12:23:00,73.0,68.0,30.06,WSW,248,0.0,0.0,84,0.00,,,0.00,,2013-05-30 16:23:00,
2013-05-30 12:33:00,80.0,72.0,30.06,North,0,0.0,0.0,76,0.00,,,0.00,,2013-05-30 16:33:00,
2013-05-30 12:42:00,80.0,72.0,30.06,North,0,0.0,0.0,76,0.00,,,0.00,,2013-05-30 16:42:00,
2013-05-30 12:53:00,80.0,72.0,30.06,North,0,0.0,0.0,76,0.00,,,0.00,,2013-05-30 16:53:00,
2013-05-30 13:02:00,80.0,71.0,30.06,North,0,0.0,0.0,75,0.00,,,0.00,,2013-05-30 17:02:00,
2013-05-30 13:12:00,80.0,71.0,30.06,North,0,0.0,0.0,75,0.00,,,0.00,,2013-05-30 17:12:00,
2013-05-30 13:22:00,80.0,70.0,30.06,WSW,248,0.0,0.0,72,0.00,,,0.00,,2013-05-30 17:22:00,
2013-05-30 13:32:00,80.0,70.0,30.06,WSW,248,0.0,0.0,72,0.00,,,0.00,,2013-05-30 17:32:00,
2013-05-30 13:42:00,80.0,70.0,30.06,WSW,248,0.0,0.0,72,0.00,,,0.00,,2013-05-30 17:42:00,
2013-05-30 13:52:00,81.0,71.0,30.06,North,0,0.0,0.0,71,0.00,,,0.00,,2013-05-30 17:52:00,
2013-05-30 14:02:00,82.0,71.0,30.06,WSW,248,0.0,0.0,70,0.00,,,0.00,,2013-05-30 18:02:00,
2013-05-30 14:11:00,82.0,71.0,30.06,WSW,248,0.0,0.0,70,0.00,,,0.00,,2013-05-30 18:11:00,
2013-05-30 14:22:00,82.0,71.0,30.06,WSW,248,0.0,0.0,70,0.00,,,0.00,,2013-05-30 18:22:00,
2013-05-30 14:32:00,82.0,71.0,30.06,WSW,248,0.0,0.0,70,0.00,,,0.00,,2013-05-30 18:32:00,
2013-05-30 14:42:00,82.0,71.0,30.06,WSW,248,0.0,0.0,70,0.00,,,0.00,,2013-05-30 18:42:00,
2013-05-30 14:51:00,82.0,71.0,30.06,WSW,248,0.0,0.0,70,0.00,,,0.00,,2013-05-30 18:51:00,
2013-05-30 15:02:00,81.0,70.0,30.06,North,0,0.0,0.0,69,0.00,,,0.00,,2013-05-30 19:02:00,
2013-05-30 15:12:00,81.0,70.0,30.06,North,0,0.0,0.0,69,0.00,,,0.00,,2013-05-30 19:12:00,
2013-05-30 15:23:00,81.0,69.0,30.06,SW,225,0.0,0.0,68,0.00,,,0.00,,2013-05-30 19:23:00,
2013-05-30 15:32:00,81.0,69.0,30.06,SW,225,0.0,0.0,68,0.00,,,0.00,,2013-05-30 19:32:00,
2013-05-30 15:42:00,81.0,69.0,30.06,SW,225,0.0,0.0,68,0.00,,,0.00,,2013-05-30 19:42:00,
2013-05-30 15:52:00,81.0,69.0,30.06,SW,225,0.0,0.0,68,0.00,,,0.00,,2013-05-30 19:52:00,
2013-05-30 16:02:00,81.0,69.0,30.06,SW,225,0.0,0.0,68,0.00,,,0.00,,2013-05-30 20:02:00,
2013-05-30 16:11:00,81.0,69.0,30.06,SW,225,0.0,0.0,68,0.00,,,0.00,,2013-05-30 20:11:00,
2013-05-30 17:53:00,83.0,68.0,30.03,West,270,0.0,0.0,61,0.00,,,0.00,,2013-05-30 21:53:00,
2013-05-30 18:03:00,80.0,66.0,30.03,SSW,202,0.0,0.0,62,0.00,,,0.00,,2013-05-30 22:03:00,
2013-05-30 18:12:00,80.0,66.0,30.03,SSW,202,0.0,0.0,62,0.00,,,0.00,,2013-05-30 22:12:00,
2013-05-30 18:23:00,78.0,65.0,30.03,SW,225,3.0,3.0,64,0.00,,,0.00,,2013-05-30 22:23:00,
2013-05-30 18:33:00,74.0,63.0,30.03,West,270,0.0,0.0,68,0.00,,,0.00,,2013-05-30 22:33:00,
2013-05-30 18:42:00,74.0,63.0,30.03,West,270,0.0,0.0,68,0.00,,,0.00,,2013-05-30 22:42:00,
2013-05-30 18:52:00,74.0,63.0,30.03,West,270,0.0,0.0,68,0.00,,,0.00,,2013-05-30 22:52:00,
2013-05-30 19:02:00,73.0,62.0,30.03,WNW,292,0.0,0.0,69,0.00,,,0.00,,2013-05-30 23:02:00,
2013-05-30 19:11:00,73.0,62.0,30.03,WNW,292,0.0,0.0,69,0.00,,,0.00,,2013-05-30 23:11:00,
2013-05-30 19:22:00,73.0,62.0,30.03,WNW,292,0.0,0.0,69,0.00,,,0.00,,2013-05-30 23:22:00,
2013-05-30 19:32:00,73.0,62.0,30.03,WNW,292,0.0,0.0,69,0.00,,,0.00,,2013-05-30 23:32:00,
2013-05-30 19:42:00,73.0,62.0,30.03,WNW,292,0.0,0.0,69,0.00,,,0.00,,2013-05-30 23:42:00,
2013-05-30 19:52:00,69.0,61.0,30.03,North,0,0.0,0.0,75,0.00,,,0.00,,2013-05-30 23:52:00,
2013-05-30 20:01:00,69.0,61.0,30.03,North,0,0.0,0.0,75,0.00,,,0.00,,2013-05-31 00:01:00,
2013-05-30 20:11:00,69.0,61.0,30.03,North,0,0.0,0.0,75,0.00,,,0.00,,2013-05-31 00:11:00,
2013-05-30 20:22:00,69.0,61.0,30.03,North,0,0.0,0.0,75,0.00,,,0.00,,2013-05-31 00:22:00,
2013-05-30 20:32:00,69.0,61.0,30.03,North,0,0.0,0.0,75,0.00,,,0.00,,2013-05-31 00:32:00,
2013-05-30 20:42:00,69.0,61.0,30.03,North,0,0.0,0.0,75,0.00,,,0.00,,2013-05-31 00:42:00,
2013-05-30 21:01:00,67.0,60.0,30.06,North,0,0.0,0.0,79,0.00,,,0.00,,2013-05-31 01:01:00,
2013-05-30 21:12:00,67.0,60.0,30.06,North,0,0.0,0.0,79,0.00,,,0.00,,2013-05-31 01:12:00,
2013-05-30 21:21:00,67.0,60.0,30.06,North,0,0.0,0.0,79,0.00,,,0.00,,2013-05-31 01:21:00,
2013-05-30 21:32:00,67.0,60.0,30.06,North,0,0.0,0.0,79,0.00,,,0.00,,2013-05-31 01:32:00,
2013-05-30 21:42:00,66.0,60.0,30.06,North,0,0.0,0.0,80,0.00,,,5.19,,2013-05-31 01:42:00,
2013-05-30 21:52:00,66.0,60.0,30.06,North,0,0.0,0.0,80,0.00,,,5.19,,2013-05-31 01:52:00,
2013-05-30 22:02:00,66.0,60.0,30.06,North,0,0.0,0.0,80,0.00,,,5.19,,2013-05-31 02:02:00,
2013-05-30 22:11:00,66.0,60.0,30.06,North,0,0.0,0.0,80,0.00,,,5.19,,2013-05-31 02:11:00,
2013-05-30 22:22:00,66.0,60.0,30.06,North,0,0.0,0.0,80,0.00,,,5.19,,2013-05-31 02:22:00,
2013-05-30 22:32:00,66.0,60.0,30.06,North,0,0.0,0.0,80,0.00,,,5.19,,2013-05-31 02:32:00,
2013-05-30 22:42:00,66.0,60.0,30.06,North,0,0.0,0.0,80,0.00,,,5.19,,2013-05-31 02:42:00,
2013-05-30 22:52:00,65.0,59.0,30.06,North,0,0.0,0.0,82,0.00,,,0.00,,2013-05-31 02:52:00,
2013-05-30 23:01:00,65.0,60.0,30.06,North,0,0.0,0.0,83,0.00,,,0.00,,2013-05-31 03:01:00,
2013-05-30 23:11:00,65.0,60.0,30.06,North,0,0.0,0.0,83,0.00,,,0.00,,2013-05-31 03:11:00,
2013-05-30 23:21:00,65.0,60.0,30.06,North,0,0.0,0.0,83,0.00,,,0.00,,2013-05-31 03:21:00,
2013-05-30 23:33:00,65.0,60.0,30.06,North,0,0.0,0.0,83,0.00,,,0.00,,2013-05-31 03:33:00,
2013-05-30 23:43:00,65.0,60.0,30.06,North,0,0.0,0.0,83,0.00,,,0.00,,2013-05-31 03:43:00,
2013-05-30 23:53:00,65.0,60.0,30.06,North,0,0.0,0.0,83,0.00,,,0.00,,2013-05-31 03:53:00,